createdAt,value
2023-03-13T00:01:56.538Z,10.02
2023-03-13T00:04:28.272Z,8.07
2023-03-13T00:07:02.275Z,8.77
2023-03-13T00:09:33.961Z,12.53
2023-03-13T00:12:05.870Z,11.43
2023-03-13T00:14:37.572Z,16.45
2023-03-13T00:17:09.381Z,8.48
2023-03-13T00:19:41.160Z,10.77
2023-03-13T00:22:12.869Z,8.68
2023-03-13T00:24:46.316Z,10.20
2023-03-13T00:27:18.323Z,12.40
2023-03-13T00:29:50.876Z,7.68
2023-03-13T00:32:22.602Z,10.07
2023-03-13T00:34:56.185Z,8.88
2023-03-13T00:37:27.909Z,8.43
2023-03-13T00:40:02.641Z,9.77
2023-03-13T00:42:35.005Z,8.00
2023-03-13T00:45:07.094Z,13.60
2023-03-13T00:47:38.816Z,10.52
2023-03-13T00:50:11.008Z,7.18
2023-03-13T00:52:42.691Z,12.80
2023-03-13T00:55:14.428Z,10.23
2023-03-13T00:57:46.167Z,11.50
2023-03-13T01:00:18.382Z,11.85
2023-03-13T01:02:50.232Z,13.15
2023-03-13T01:13:35.145Z,11.07
2023-03-13T01:16:10.195Z,10.38
2023-03-13T01:18:45.071Z,8.80
2023-03-13T01:21:19.920Z,9.07
2023-03-13T01:23:53.638Z,8.32
2023-03-13T01:26:26.357Z,11.82
2023-03-13T01:28:58.764Z,10.20
2023-03-13T01:31:33.675Z,8.23
2023-03-13T01:34:06.508Z,10.65
2023-03-13T01:36:38.243Z,8.70
2023-03-13T01:39:09.981Z,9.45
2023-03-13T01:41:41.698Z,12.55
2023-03-13T01:44:23.591Z,11.90
2023-03-13T01:46:55.835Z,10.90
2023-03-13T01:49:34.182Z,9.02
2023-03-13T01:52:31.280Z,10.93
2023-03-13T01:55:18.574Z,10.43
2023-03-13T02:00:33.121Z,9.90
2023-03-13T02:03:12.259Z,11.82
2023-03-13T02:05:46.924Z,9.65
2023-03-13T02:08:24.209Z,11.73
2023-03-13T02:11:26.644Z,8.70
2023-03-13T02:13:59.349Z,10.50
2023-03-13T02:16:34.225Z,10.75
2023-03-13T02:19:27.872Z,11.25
2023-03-13T02:22:31.590Z,13.13
2023-03-13T02:25:09.285Z,12.07
2023-03-13T02:27:43.269Z,14.82
2023-03-13T02:30:15.695Z,11.95
2023-03-13T02:32:47.493Z,8.43
2023-03-13T02:35:22.118Z,6.15
2023-03-13T02:37:58.011Z,13.77
2023-03-13T02:40:35.434Z,8.90
2023-03-13T02:43:15.247Z,11.13
2023-03-13T02:46:15.771Z,8.65
2023-03-13T02:48:53.227Z,9.63
2023-03-13T02:51:41.799Z,10.65
2023-03-13T02:54:29.854Z,11.38
2023-03-13T02:57:04.160Z,6.20
2023-03-13T02:59:36.076Z,9.20
2023-03-13T03:02:07.837Z,10.80
2023-03-13T03:04:41.923Z,8.68
2023-03-13T03:07:15.760Z,7.20
2023-03-13T03:09:47.467Z,9.63
2023-03-13T03:12:23.518Z,11.57
2023-03-13T03:14:55.241Z,10.63
2023-03-13T03:17:27.712Z,9.57
2023-03-13T03:20:01.213Z,10.77
2023-03-13T03:22:32.884Z,12.30
2023-03-13T03:25:06.862Z,10.13
2023-03-13T03:27:38.918Z,12.48
2023-03-13T03:30:13.089Z,10.05
2023-03-13T03:32:44.880Z,8.95
2023-03-13T03:35:16.756Z,13.60
2023-03-13T03:37:48.624Z,12.50
2023-03-13T03:40:21.440Z,7.97
2023-03-13T03:42:53.289Z,9.88
2023-03-13T03:45:25.086Z,12.27
2023-03-13T03:47:59.772Z,8.50
2023-03-13T03:50:32.096Z,10.02
2023-03-13T03:53:06.172Z,10.23
2023-03-13T03:55:37.893Z,8.45
2023-03-13T03:58:09.673Z,7.90
2023-03-13T04:01:02.404Z,8.20
2023-03-13T04:03:34.315Z,9.30
2023-03-13T04:06:07.580Z,10.65
2023-03-13T04:08:39.374Z,11.57
2023-03-13T04:11:11.387Z,9.70
2023-03-13T04:13:46.438Z,13.52
2023-03-13T04:16:18.283Z,10.23
2023-03-13T04:18:51.659Z,8.18
2023-03-13T04:21:23.919Z,9.65
2023-03-13T04:24:00.045Z,11.77
2023-03-13T04:26:32.249Z,9.95
2023-03-13T04:29:06.294Z,11.70
2023-03-13T04:32:04.435Z,11.90
2023-03-13T04:35:05.552Z,10.27
2023-03-13T04:38:15.528Z,11.55
2023-03-13T04:41:06.751Z,8.27
2023-03-13T04:43:57.160Z,8.15
2023-03-13T04:46:34.596Z,8.88
2023-03-13T04:49:11.170Z,9.80
2023-03-13T04:52:08.725Z,9.48
2023-03-13T04:54:52.123Z,6.80
2023-03-13T04:57:40.820Z,9.18
2023-03-13T05:00:41.140Z,8.98
2023-03-13T05:03:35.781Z,7.65
2023-03-13T05:09:10.820Z,7.78
2023-03-13T05:12:01.284Z,9.65
2023-03-13T05:14:55.704Z,7.50
2023-03-13T05:17:47.635Z,7.95
2023-03-13T05:20:45.662Z,6.70
2023-03-13T05:23:39.139Z,7.32
2023-03-13T05:26:29.296Z,9.27
2023-03-13T05:29:15.088Z,9.35
2023-03-13T05:32:01.345Z,9.05
2023-03-13T05:34:56.073Z,8.23
2023-03-13T05:37:50.244Z,9.68
2023-03-13T05:40:36.881Z,7.72
2023-03-13T05:43:26.608Z,7.95
2023-03-13T05:46:31.107Z,9.43
2023-03-13T05:49:21.212Z,8.73
2023-03-13T05:52:13.156Z,11.75
2023-03-13T05:55:13.923Z,7.30
2023-03-13T05:58:11.738Z,17.45
2023-03-13T06:01:14.252Z,8.75
2023-03-13T06:04:03.502Z,13.30
2023-03-13T06:06:38.427Z,7.75
2023-03-13T06:09:11.798Z,12.13
2023-03-13T06:11:44.410Z,9.68
2023-03-13T06:14:16.498Z,11.50
2023-03-13T06:17:08.142Z,6.50
2023-03-13T06:19:39.899Z,11.73
2023-03-13T06:22:11.579Z,10.13
2023-03-13T06:24:44.752Z,12.27
2023-03-13T06:27:17.076Z,10.60
2023-03-13T06:29:48.868Z,7.28
2023-03-13T06:32:21.901Z,10.15
2023-03-13T06:34:53.632Z,10.80
2023-03-13T06:37:25.332Z,9.32
2023-03-13T06:39:58.284Z,9.32
2023-03-13T06:42:30.415Z,8.32
2023-03-13T06:45:03.476Z,9.32
2023-03-13T06:47:35.152Z,9.32
2023-03-13T06:50:07.414Z,7.88
2023-03-13T06:52:43.939Z,13.48
2023-03-13T06:55:16.108Z,9.40
2023-03-13T06:57:52.133Z,10.88
2023-03-13T07:00:26.805Z,11.68
2023-03-13T07:05:30.309Z,7.03
2023-03-13T07:08:02.042Z,8.85
2023-03-13T07:10:36.639Z,9.13
2023-03-13T07:13:09.755Z,7.90
2023-03-13T07:15:41.541Z,11.02
2023-03-13T07:18:13.187Z,8.68
2023-03-13T07:20:44.917Z,10.40
2023-03-13T07:23:16.629Z,11.23
2023-03-13T07:26:15.315Z,14.02
2023-03-13T07:28:47.031Z,5.75
2023-03-13T07:31:21.467Z,9.35
2023-03-13T07:33:56.561Z,7.00
2023-03-13T07:36:28.668Z,6.78
2023-03-13T07:39:00.371Z,9.52
2023-03-13T07:41:32.101Z,10.95
2023-03-13T07:44:03.781Z,8.88
2023-03-13T07:46:35.577Z,6.85
2023-03-13T07:49:09.345Z,9.13
2023-03-13T07:51:44.217Z,9.38
2023-03-13T07:54:16.093Z,11.15
2023-03-13T07:56:48.883Z,10.93
2023-03-13T07:59:20.542Z,7.43
2023-03-13T08:01:54.452Z,8.90
2023-03-13T08:04:28.539Z,9.52
2023-03-13T08:07:00.234Z,6.90
2023-03-13T08:09:35.541Z,9.32
2023-03-13T08:12:07.948Z,9.00
2023-03-13T08:14:42.213Z,7.85
2023-03-13T08:17:39.667Z,10.57
2023-03-13T08:20:11.726Z,11.52
2023-03-13T08:22:43.417Z,6.70
2023-03-13T08:25:16.292Z,9.85
2023-03-13T08:27:48.033Z,9.30
2023-03-13T08:30:20.072Z,9.68
2023-03-13T08:32:51.817Z,10.15
2023-03-13T08:35:26.428Z,8.07
2023-03-13T08:37:58.167Z,10.55
2023-03-13T08:40:29.867Z,9.15
2023-03-13T08:43:01.594Z,10.70
2023-03-13T08:45:36.374Z,6.45
2023-03-13T08:48:08.272Z,7.78
2023-03-13T08:50:39.967Z,7.80
2023-03-13T08:53:11.659Z,8.27
2023-03-13T08:55:43.451Z,8.25
2023-03-13T08:58:15.151Z,6.85
2023-03-13T09:00:46.808Z,10.73
2023-03-13T09:03:22.014Z,6.10
2023-03-13T09:06:01.344Z,14.27
2023-03-13T09:08:36.327Z,9.38
2023-03-13T09:11:14.401Z,5.28
2023-03-13T09:13:48.984Z,7.43
2023-03-13T09:16:27.394Z,8.15
2023-03-13T09:19:01.463Z,7.50
2023-03-13T09:21:35.729Z,4.40
2023-03-13T09:24:07.888Z,8.65
2023-03-13T09:26:42.689Z,10.45
2023-03-13T09:29:22.383Z,6.00
2023-03-13T09:31:54.112Z,9.70
2023-03-13T09:34:30.425Z,8.32
2023-03-13T09:37:02.161Z,7.57
2023-03-13T09:39:33.936Z,8.30
2023-03-13T09:42:19.101Z,7.55
2023-03-13T09:45:01.694Z,5.75
2023-03-13T09:47:44.398Z,3.65
2023-03-13T09:50:23.921Z,6.18
2023-03-13T09:53:14.063Z,7.38
2023-03-13T09:55:48.857Z,6.80
2023-03-13T09:58:28.215Z,4.40
2023-03-13T10:01:06.629Z,6.57
2023-03-13T10:03:53.618Z,5.95
2023-03-13T10:06:27.856Z,4.32
2023-03-13T10:09:01.277Z,7.68
2023-03-13T10:14:42.916Z,8.52
2023-03-13T10:17:31.554Z,7.70
2023-03-13T10:20:22.089Z,5.90
2023-03-13T10:23:13.945Z,6.07
2023-03-13T10:25:49.630Z,10.65
2023-03-13T10:28:23.103Z,6.97
2023-03-13T10:31:27.994Z,8.03
2023-03-13T10:34:27.584Z,9.60
2023-03-13T10:37:02.007Z,6.40
2023-03-13T10:39:33.760Z,5.18
2023-03-13T10:42:18.997Z,5.40
2023-03-13T10:44:56.629Z,5.28
2023-03-13T10:47:36.365Z,7.47
2023-03-13T10:50:19.078Z,8.00
2023-03-13T10:52:51.726Z,4.40
2023-03-13T10:55:25.153Z,10.23
2023-03-13T10:58:05.252Z,5.40
2023-03-13T11:00:39.235Z,4.55
2023-03-13T11:03:18.517Z,5.03
2023-03-13T11:05:59.142Z,3.80
2023-03-13T11:08:35.812Z,2.35
2023-03-13T11:11:19.356Z,3.33
2023-03-13T11:13:51.120Z,2.60
2023-03-13T11:16:28.582Z,6.00
2023-03-13T11:19:19.766Z,2.75
2023-03-13T11:21:54.710Z,5.65
2023-03-13T11:24:42.539Z,2.75
2023-03-13T11:27:32.464Z,5.78
2023-03-13T11:30:11.787Z,3.08
2023-03-13T11:33:01.970Z,2.75
2023-03-13T11:35:45.534Z,2.53
2023-03-13T11:38:29.266Z,2.60
2023-03-13T11:41:24.270Z,3.80
2023-03-13T11:44:12.645Z,5.07
2023-03-13T11:46:50.010Z,4.30
2023-03-13T11:49:45.639Z,2.33
2023-03-13T11:52:35.736Z,6.22
2023-03-13T11:55:46.137Z,2.67
2023-03-13T11:58:42.200Z,3.40
2023-03-13T12:01:19.085Z,2.13
2023-03-13T12:04:19.898Z,2.30
2023-03-13T12:07:02.413Z,2.42
2023-03-13T12:09:51.692Z,2.05
2023-03-13T12:12:47.837Z,2.20
2023-03-13T12:15:26.815Z,4.20
2023-03-13T12:18:04.445Z,3.17
2023-03-13T12:21:05.617Z,2.80
2023-03-13T12:23:45.876Z,2.03
2023-03-13T12:26:25.148Z,2.05
2023-03-13T12:29:10.811Z,3.13
2023-03-13T12:31:51.922Z,2.63
2023-03-13T12:34:46.783Z,3.38
2023-03-13T12:37:25.082Z,2.25
2023-03-13T12:40:28.549Z,2.92
2023-03-13T12:43:30.935Z,1.67
2023-03-13T12:46:25.862Z,3.20
2023-03-13T12:49:34.508Z,4.57
2023-03-13T12:52:24.737Z,2.55
2023-03-13T12:55:19.151Z,4.32
2023-03-13T12:57:56.694Z,2.23
2023-03-13T13:00:31.488Z,3.13
2023-03-13T13:03:03.179Z,3.20
2023-03-13T13:05:34.919Z,2.88
2023-03-13T13:08:06.689Z,4.22
2023-03-13T13:10:41.954Z,2.42
2023-03-13T13:13:13.558Z,3.15
2023-03-13T13:16:04.514Z,2.67
2023-03-13T13:18:36.382Z,2.30
2023-03-13T13:21:08.005Z,2.92
2023-03-13T13:23:46.612Z,2.05
2023-03-13T13:26:29.605Z,3.13
2023-03-13T13:29:22.291Z,3.97
2023-03-13T13:31:58.854Z,2.55
2023-03-13T13:34:36.375Z,3.13
2023-03-13T13:37:17.794Z,2.88
2023-03-13T13:39:54.710Z,6.03
2023-03-13T13:42:32.523Z,2.72
2023-03-13T13:45:05.853Z,4.53
2023-03-13T13:47:40.972Z,4.07
2023-03-13T13:50:25.405Z,2.13
2023-03-13T13:53:33.290Z,6.03
2023-03-13T13:56:25.066Z,4.38
2023-03-13T13:59:24.835Z,2.58
2023-03-13T14:02:10.470Z,4.90
2023-03-13T14:04:59.585Z,3.47
2023-03-13T14:07:37.081Z,4.30
2023-03-13T14:10:33.614Z,3.58
2023-03-13T14:13:15.082Z,2.40
2023-03-13T14:15:48.983Z,2.42
2023-03-13T14:18:22.629Z,3.28
2023-03-13T14:21:02.441Z,2.63
2023-03-13T14:23:42.098Z,4.30
2023-03-13T14:26:17.963Z,4.90
2023-03-13T14:28:58.241Z,2.58
2023-03-13T14:31:35.260Z,3.15
2023-03-13T14:34:12.958Z,2.63
2023-03-13T14:36:50.558Z,2.53
2023-03-13T14:39:38.516Z,3.42
2023-03-13T14:42:13.605Z,2.55
2023-03-13T14:44:49.228Z,3.30
2023-03-13T14:47:30.865Z,4.43
2023-03-13T14:50:12.019Z,5.22
2023-03-13T14:52:57.494Z,3.10
2023-03-13T14:55:33.136Z,3.00
2023-03-13T14:58:20.949Z,3.72
2023-03-13T15:00:53.310Z,2.60
2023-03-13T15:03:31.044Z,2.10
2023-03-13T15:06:11.879Z,3.40
2023-03-13T15:09:06.188Z,2.10
2023-03-13T15:11:42.742Z,2.95
2023-03-13T15:14:50.791Z,4.85
2023-03-13T15:17:25.266Z,2.65
2023-03-13T15:19:58.887Z,7.25
2023-03-13T15:22:41.960Z,3.08
2023-03-13T15:25:23.074Z,2.55
2023-03-13T15:27:54.749Z,4.30
2023-03-13T15:30:26.367Z,2.25
2023-03-13T15:32:58.201Z,2.00
2023-03-13T15:35:32.378Z,4.32
2023-03-13T15:38:04.203Z,3.92
2023-03-13T15:40:35.964Z,4.88
2023-03-13T15:43:07.727Z,3.20
2023-03-13T15:45:42.166Z,3.45
2023-03-13T15:48:18.202Z,2.92
2023-03-13T15:50:51.922Z,4.53
2023-03-13T15:53:27.764Z,1.90
2023-03-13T15:56:01.821Z,2.45
2023-03-13T15:58:33.503Z,3.05
2023-03-13T16:01:05.462Z,4.28
2023-03-13T16:03:37.183Z,5.82
2023-03-13T16:06:16.812Z,7.88
2023-03-13T16:08:48.673Z,4.82
2023-03-13T16:11:20.479Z,4.25
2023-03-13T16:13:52.972Z,4.32
2023-03-13T16:16:30.541Z,5.18
2023-03-13T16:19:04.315Z,5.65
2023-03-13T16:21:36.228Z,5.67
2023-03-13T16:24:08.113Z,4.25
2023-03-13T16:26:39.835Z,6.30
2023-03-13T16:29:13.449Z,4.13
2023-03-13T16:31:45.232Z,3.25
2023-03-13T16:34:17.736Z,5.38
2023-03-13T16:36:49.390Z,2.25
2023-03-13T16:39:21.134Z,4.30
2023-03-13T16:41:52.889Z,4.10
2023-03-13T16:44:27.089Z,2.80
2023-03-13T16:47:06.033Z,4.38
2023-03-13T16:49:38.260Z,3.63
2023-03-13T16:52:19.164Z,4.18
2023-03-13T16:54:50.878Z,3.53
2023-03-13T16:57:26.345Z,3.83
2023-03-13T16:59:58.068Z,6.25
2023-03-13T17:02:29.820Z,6.28
2023-03-13T17:05:01.589Z,6.68
2023-03-13T17:07:33.372Z,6.18
2023-03-13T17:10:16.683Z,3.58
2023-03-13T17:12:49.031Z,3.65
2023-03-13T17:15:21.809Z,8.98
2023-03-13T17:17:54.002Z,4.13
2023-03-13T17:20:28.460Z,5.38
2023-03-13T17:23:01.114Z,7.28
2023-03-13T17:25:33.278Z,5.10
2023-03-13T17:28:05.127Z,4.03
2023-03-13T17:30:36.842Z,4.20
2023-03-13T17:33:08.515Z,6.00
2023-03-13T17:35:40.284Z,6.97
2023-03-13T17:38:15.535Z,6.80
2023-03-13T17:40:47.204Z,9.55
2023-03-13T17:43:18.896Z,5.80
2023-03-13T17:45:50.568Z,6.72
2023-03-13T17:48:22.325Z,4.85
2023-03-13T17:50:54.195Z,5.35
2023-03-13T17:53:25.859Z,6.35
2023-03-13T17:55:57.620Z,6.32
2023-03-13T17:58:29.283Z,5.53
2023-03-13T18:01:00.990Z,4.50
2023-03-13T18:03:32.655Z,9.30
2023-03-13T18:06:05.030Z,6.13
2023-03-13T18:08:36.740Z,6.47
2023-03-13T18:11:11.607Z,5.90
2023-03-13T18:13:44.871Z,7.15
2023-03-13T18:16:19.798Z,6.80
2023-03-13T18:18:52.505Z,8.90
2023-03-13T18:21:24.671Z,5.55
2023-03-13T18:23:57.081Z,5.82
2023-03-13T18:26:37.009Z,6.43
2023-03-13T18:29:25.992Z,4.18
2023-03-13T18:32:00.501Z,4.90
2023-03-13T18:34:32.670Z,6.32
2023-03-13T18:37:16.096Z,6.05
2023-03-13T18:39:50.011Z,6.13
2023-03-13T18:42:23.145Z,7.88
2023-03-13T18:44:54.883Z,4.78
2023-03-13T18:47:28.604Z,7.07
2023-03-13T18:50:00.290Z,8.10
2023-03-13T18:52:31.977Z,5.72
2023-03-13T18:55:03.844Z,6.05
2023-03-13T18:57:35.855Z,7.15
2023-03-13T19:00:23.328Z,6.28
2023-03-13T19:02:55.728Z,9.82
2023-03-13T19:05:27.654Z,6.75
2023-03-13T19:07:59.430Z,5.40
2023-03-13T19:10:34.208Z,6.50
2023-03-13T19:13:05.902Z,7.25
2023-03-13T19:15:38.053Z,5.30
2023-03-13T19:18:11.794Z,5.88
2023-03-13T19:20:43.630Z,4.77
2023-03-13T19:23:15.259Z,4.72
2023-03-13T19:25:46.978Z,4.70
2023-03-13T19:28:19.827Z,5.97
2023-03-13T19:30:51.785Z,5.32
2023-03-13T19:33:23.472Z,5.85
2023-03-13T19:35:55.280Z,5.18
2023-03-13T19:38:27.096Z,4.65
2023-03-13T19:40:58.934Z,6.40
2023-03-13T19:43:30.620Z,7.97
2023-03-13T19:46:17.555Z,8.02
2023-03-13T19:48:51.912Z,5.90
2023-03-13T19:51:24.910Z,7.03
2023-03-13T19:53:57.030Z,6.07
2023-03-13T19:56:31.753Z,4.88
2023-03-13T20:01:36.700Z,7.32
2023-03-13T20:04:08.530Z,5.78
2023-03-13T20:06:41.338Z,4.90
2023-03-13T20:09:16.307Z,4.63
2023-03-13T20:11:48.018Z,5.85
2023-03-13T20:14:20.005Z,5.22
2023-03-13T20:16:51.838Z,5.47
2023-03-13T20:19:25.523Z,4.05
2023-03-13T20:22:03.421Z,6.18
2023-03-13T20:24:36.241Z,5.75
2023-03-13T20:27:08.008Z,4.82
2023-03-13T20:29:41.353Z,4.30
2023-03-13T20:32:16.877Z,4.78
2023-03-13T20:34:48.608Z,4.82
2023-03-13T20:37:20.871Z,5.57
2023-03-13T20:39:52.601Z,4.35
2023-03-13T20:42:24.258Z,5.82
2023-03-13T20:44:56.006Z,4.95
2023-03-13T20:47:27.683Z,6.50
2023-03-13T20:49:59.488Z,7.05
2023-03-13T20:52:31.147Z,7.47
2023-03-13T20:55:02.927Z,6.07
2023-03-13T20:57:36.718Z,6.88
2023-03-13T21:00:11.655Z,4.30
2023-03-13T21:02:43.515Z,4.18
2023-03-13T21:05:15.991Z,5.10
2023-03-13T21:07:48.037Z,4.90
2023-03-13T21:10:21.057Z,3.85
2023-03-13T21:12:52.851Z,4.07
2023-03-13T21:15:24.588Z,4.38
2023-03-13T21:17:56.542Z,3.95
2023-03-13T21:20:29.284Z,3.92
2023-03-13T21:23:01.007Z,4.18
2023-03-13T21:25:32.726Z,4.65
2023-03-13T21:28:04.641Z,5.28
2023-03-13T21:30:39.219Z,3.78
2023-03-13T21:33:11.961Z,4.47
2023-03-13T21:35:45.882Z,3.58
2023-03-13T21:38:17.745Z,5.95
2023-03-13T21:40:49.472Z,4.78
2023-03-13T21:43:21.171Z,8.43
2023-03-13T21:45:52.882Z,5.18
2023-03-13T21:48:24.842Z,4.93
2023-03-13T21:50:56.534Z,4.97
2023-03-13T21:53:28.225Z,3.97
2023-03-13T21:55:59.990Z,4.07
2023-03-13T21:58:31.710Z,5.22
2023-03-13T22:01:03.593Z,5.45
2023-03-13T22:03:35.319Z,6.03
2023-03-13T22:06:18.650Z,4.88
2023-03-13T22:08:51.072Z,6.15
2023-03-13T22:11:22.799Z,5.13
2023-03-13T22:13:54.632Z,5.25
2023-03-13T22:16:26.762Z,5.90
2023-03-13T22:19:01.200Z,8.50
2023-03-13T22:21:32.952Z,8.70
2023-03-13T22:24:04.836Z,7.10
2023-03-13T22:26:36.648Z,7.28
2023-03-13T22:29:08.393Z,7.78
2023-03-13T22:31:40.145Z,4.60
2023-03-13T22:34:11.871Z,6.90
2023-03-13T22:36:43.636Z,6.13
2023-03-13T22:39:15.324Z,5.65
2023-03-13T22:41:47.292Z,7.65
2023-03-13T22:44:19.432Z,6.30
2023-03-13T22:46:52.683Z,9.70
2023-03-13T22:49:24.690Z,5.53
2023-03-13T22:51:56.566Z,7.15
2023-03-13T22:54:28.270Z,5.93
2023-03-13T22:57:00.018Z,6.93
2023-03-13T22:59:31.834Z,5.70
2023-03-13T23:02:03.566Z,6.07
2023-03-13T23:04:35.285Z,6.50
2023-03-13T23:07:07.051Z,8.35
2023-03-13T23:09:41.643Z,6.53
2023-03-13T23:12:13.347Z,5.78
2023-03-13T23:14:45.032Z,5.75
2023-03-13T23:17:16.857Z,6.47
2023-03-13T23:19:48.531Z,7.03
2023-03-13T23:22:21.998Z,7.43
2023-03-13T23:24:54.142Z,8.52
2023-03-13T23:27:40.874Z,6.57
2023-03-13T23:30:15.240Z,5.97
2023-03-13T23:32:48.457Z,7.90
2023-03-13T23:35:20.464Z,7.25
2023-03-13T23:37:55.209Z,8.38
2023-03-13T23:42:59.958Z,7.32
2023-03-13T23:45:31.681Z,11.45
2023-03-13T23:48:03.525Z,9.02
2023-03-13T23:50:36.253Z,8.23
2023-03-13T23:53:07.989Z,11.07
2023-03-13T23:55:39.631Z,10.43
2023-03-13T23:58:11.360Z,8.77
